Time;durP1;ratioP1;P1;durP2;ratioP2;P2;SDS_P1;SDS_P2;PMS_P1;PMS_P2;Temp;Humidity;BMP_temperature;BMP_pressure;BME280_temperature;BME280_humidity;BME280_pressure;Samples;Min_cycle;Max_cycle;Signal;HPM_P1;HPM_P2
2023/11/09 00:01:44;;;;;;;3.63;1.30;;;9.00;99.90;;;;;;4823750;29;20185;-83
2023/11/09 00:04:10;;;;;;;4.22;1.20;;;9.00;99.90;;;;;;4823312;29;20220;-85
2023/11/09 00:06:36;;;;;;;2.83;1.10;;;9.00;99.90;;;;;;4824884;29;20182;-83
2023/11/09 00:09:06;;;;;;;3.83;1.38;;;9.10;99.90;;;;;;4824654;29;20602;-83
2023/11/09 00:11:31;;;;;;;2.75;0.93;;;9.10;99.90;;;;;;4808351;29;20509;-83
2023/11/09 00:13:57;;;;;;;2.50;1.10;;;9.10;99.90;;;;;;4823337;29;20260;-84
2023/11/09 00:16:23;;;;;;;2.83;1.20;;;9.00;99.90;;;;;;4824703;29;20193;-83
2023/11/09 00:18:49;;;;;;;2.33;1.27;;;9.00;99.90;;;;;;4823127;29;20190;-84
2023/11/09 00:21:15;;;;;;;4.07;1.35;;;9.00;99.90;;;;;;4823494;29;20197;-83
2023/11/09 00:23:40;;;;;;;3.97;1.30;;;9.00;99.90;;;;;;4824364;29;20649;-84
2023/11/09 00:26:08;;;;;;;4.35;1.25;;;9.00;99.90;;;;;;4808114;29;20198;-84
2023/11/09 00:28:34;;;;;;;2.67;1.20;;;9.00;99.90;;;;;;4808187;29;20216;-84
2023/11/09 00:31:00;;;;;;;2.53;1.20;;;9.00;99.90;;;;;;4824434;29;20670;-84
2023/11/09 00:33:25;;;;;;;2.13;0.95;;;9.00;99.90;;;;;;4823008;29;20233;-84
2023/11/09 00:35:53;;;;;;;2.55;1.05;;;9.00;99.90;;;;;;4823319;29;20197;-84
2023/11/09 00:38:19;;;;;;;2.03;1.13;;;9.10;99.90;;;;;;4826274;29;20221;-86
2023/11/09 00:40:46;;;;;;;6.90;1.50;;;9.10;99.90;;;;;;4811667;29;20630;-84
2023/11/09 00:43:13;;;;;;;4.18;1.45;;;9.10;99.90;;;;;;4826763;29;20221;-85
2023/11/09 00:45:38;;;;;;;7.10;1.40;;;9.20;99.90;;;;;;4827194;29;20232;-84
2023/11/09 00:48:05;;;;;;;2.33;1.10;;;9.20;99.90;;;;;;4827839;29;20186;-84
2023/11/09 00:50:31;;;;;;;2.58;1.40;;;9.20;99.90;;;;;;4827573;29;20198;-84
2023/11/09 00:52:57;;;;;;;2.20;1.40;;;9.20;99.90;;;;;;4826381;29;20197;-86
2023/11/09 00:55:23;;;;;;;2.78;1.60;;;9.20;99.90;;;;;;4827602;29;20206;-85
2023/11/09 00:57:49;;;;;;;3.30;1.30;;;9.20;99.90;;;;;;4811247;29;20194;-86
2023/11/09 01:00:15;;;;;;;3.20;1.50;;;9.30;99.90;;;;;;4827795;29;20222;-85
2023/11/09 01:02:44;;;;;;;4.60;1.45;;;9.30;99.90;;;;;;4826532;29;20622;-85
2023/11/09 01:05:10;;;;;;;3.22;1.30;;;9.40;99.90;;;;;;4826055;29;20281;-85
2023/11/09 01:07:36;;;;;;;2.03;1.27;;;9.30;99.90;;;;;;4826111;29;20202;-83
2023/11/09 01:10:04;;;;;;;7.07;2.53;;;9.20;99.90;;;;;;4811128;29;20561;-84
2023/11/09 01:12:30;;;;;;;3.42;1.40;;;9.10;99.90;;;;;;4827396;29;20193;-83
2023/11/09 01:14:57;;;;;;;3.07;1.60;;;9.10;99.90;;;;;;4827280;29;20270;-84
2023/11/09 01:17:22;;;;;;;2.83;1.20;;;9.10;99.90;;;;;;4827317;29;20664;-84
2023/11/09 01:19:48;;;;;;;3.15;1.30;;;9.10;99.90;;;;;;4810299;29;20308;-83
2023/11/09 01:22:14;;;;;;;3.70;1.80;;;9.10;99.90;;;;;;4825574;29;20198;-83
2023/11/09 01:24:40;;;;;;;5.90;1.40;;;9.10;99.90;;;;;;4826123;29;20312;-83
2023/11/09 01:27:06;;;;;;;4.03;1.50;;;9.10;99.90;;;;;;4827038;29;20622;-83
2023/11/09 01:29:32;;;;;;;3.53;1.67;;;9.10;99.90;;;;;;4810958;29;20293;-84
2023/11/09 01:31:58;;;;;;;2.95;1.40;;;9.00;99.90;;;;;;4826970;29;20245;-83
2023/11/09 01:34:24;;;;;;;9.33;1.60;;;9.10;99.90;;;;;;4826848;29;20190;-84
2023/11/09 01:36:53;;;;;;;3.90;1.85;;;9.10;99.90;;;;;;4826888;29;20197;-82
2023/11/09 01:39:22;;;;;;;6.05;1.60;;;9.10;99.90;;;;;;4826246;29;20281;-85
2023/11/09 01:41:48;;;;;;;2.63;1.57;;;9.10;99.90;;;;;;4825692;29;20228;-83
2023/11/09 01:44:14;;;;;;;3.30;1.70;;;9.10;99.90;;;;;;4810546;29;20266;-84
2023/11/09 01:46:43;;;;;;;3.20;1.50;;;9.10;99.90;;;;;;4826760;29;20266;-82
2023/11/09 01:49:11;;;;;;;6.00;1.33;;;9.10;99.90;;;;;;4825262;29;20190;-83
2023/11/09 01:51:40;;;;;;;6.20;1.60;;;9.10;99.90;;;;;;4826700;29;20193;-83
2023/11/09 01:54:10;;;;;;;3.78;1.38;;;9.00;99.90;;;;;;4824820;29;20227;-83
2023/11/09 01:56:36;;;;;;;5.70;1.50;;;9.00;99.90;;;;;;4826616;29;20193;-83
2023/11/09 01:59:03;;;;;;;6.68;1.83;;;8.90;99.90;;;;;;4826521;29;20186;-83
2023/11/09 02:01:32;;;;;;;4.78;1.17;;;8.90;99.90;;;;;;4826661;29;20247;-83
2023/11/09 02:03:59;;;;;;;2.65;1.52;;;8.90;99.90;;;;;;4824768;29;20585;-83
2023/11/09 02:06:25;;;;;;;4.77;1.43;;;8.90;99.90;;;;;;4810158;29;20210;-82
2023/11/09 02:11:26;;;;;;;4.93;1.70;;;8.90;99.90;;;;;;4908372;23;20250;-80
2023/11/09 02:13:52;;;;;;;3.15;1.40;;;8.90;99.90;;;;;;4826693;29;20194;-78
2023/11/09 02:16:18;;;;;;;5.65;1.48;;;8.90;99.90;;;;;;4809381;29;20688;-79
2023/11/09 02:18:44;;;;;;;2.75;1.25;;;8.90;99.90;;;;;;4826512;29;20213;-78
2023/11/09 02:21:14;;;;;;;4.18;1.52;;;8.80;99.90;;;;;;4826639;29;20186;-78
2023/11/09 02:23:43;;;;;;;5.23;1.40;;;8.80;99.90;;;;;;4825368;29;20234;-78
2023/11/09 02:26:09;;;;;;;5.32;1.50;;;8.80;99.90;;;;;;4826032;29;20182;-79
2023/11/09 02:28:36;;;;;;;1.63;1.08;;;8.80;99.90;;;;;;4810161;29;20190;-78
2023/11/09 02:31:02;;;;;;;2.08;1.17;;;8.80;99.90;;;;;;4826627;29;20218;-80
2023/11/09 02:33:27;;;;;;;2.30;1.10;;;8.80;99.90;;;;;;4826568;29;20186;-85
2023/11/09 02:35:53;;;;;;;4.13;1.27;;;8.70;99.90;;;;;;4810056;29;20532;-88
2023/11/09 02:38:19;;;;;;;3.20;1.10;;;8.70;99.90;;;;;;4826354;29;20189;-82
2023/11/09 02:40:45;;;;;;;2.45;1.05;;;8.70;99.90;;;;;;4825945;29;20193;-89
2023/11/09 02:43:18;;;;;;;2.03;0.98;;;8.70;99.90;;;;;;4825532;29;20213;-88
2023/11/09 02:45:45;;;;;;;2.00;1.20;;;8.80;99.90;;;;;;4826243;29;20214;-80
2023/11/09 02:48:11;;;;;;;4.95;1.30;;;8.80;99.90;;;;;;4826202;29;20190;-78
2023/11/09 02:50:36;;;;;;;3.85;1.10;;;8.70;99.90;;;;;;4826091;29;20254;-79
2023/11/09 02:53:02;;;;;;;2.15;1.20;;;8.70;99.90;;;;;;4809654;29;20202;-80
2023/11/09 02:55:28;;;;;;;3.00;1.27;;;8.70;99.90;;;;;;4825481;29;20186;-79
2023/11/09 02:57:53;;;;;;;2.25;1.35;;;8.70;99.90;;;;;;4825516;29;20186;-82
2023/11/09 03:00:19;;;;;;;2.55;0.90;;;8.70;99.90;;;;;;4825684;29;20197;-78
2023/11/09 03:02:45;;;;;;;3.42;1.50;;;8.70;99.90;;;;;;4825829;29;20198;-79
2023/11/09 03:05:11;;;;;;;2.80;1.20;;;8.70;99.90;;;;;;4826143;29;20225;-79
2023/11/09 03:07:36;;;;;;;1.73;1.35;;;8.70;99.90;;;;;;4809299;29;20251;-79
2023/11/09 03:10:03;;;;;;;3.33;1.00;;;8.70;99.90;;;;;;4824782;29;20362;-78
2023/11/09 03:12:28;;;;;;;3.45;1.20;;;8.70;99.90;;;;;;4825474;29;20186;-79
2023/11/09 03:14:54;;;;;;;1.42;0.85;;;8.70;99.90;;;;;;4825493;29;20196;-78
2023/11/09 03:17:22;;;;;;;4.10;1.10;;;8.80;99.90;;;;;;4825490;29;20186;-81
2023/11/09 03:19:47;;;;;;;2.58;0.70;;;8.70;99.90;;;;;;4825756;29;20264;-91
2023/11/09 03:22:13;;;;;;;5.10;1.05;;;8.70;99.90;;;;;;4825398;29;20190;-89
2023/11/09 03:24:42;;;;;;;2.28;1.00;;;8.80;99.90;;;;;;4825486;29;20225;-83
2023/11/09 03:27:09;;;;;;;1.63;0.80;;;8.70;99.90;;;;;;4809348;29;20201;-84
2023/11/09 03:29:36;;;;;;;1.67;0.85;;;8.70;99.90;;;;;;4809561;29;20251;-79
2023/11/09 03:32:03;;;;;;;2.60;1.00;;;8.70;99.90;;;;;;4826104;29;20190;-78
2023/11/09 03:34:28;;;;;;;3.85;0.90;;;8.80;99.90;;;;;;4825979;29;20241;-78
2023/11/09 03:36:54;;;;;;;1.33;0.88;;;8.80;99.90;;;;;;4825460;29;20185;-79
2023/11/09 03:39:20;;;;;;;3.72;1.00;;;8.80;99.90;;;;;;4825299;29;20236;-78
2023/11/09 03:41:46;;;;;;;1.58;0.90;;;8.80;99.90;;;;;;4809096;29;20198;-78
2023/11/09 03:44:13;;;;;;;3.10;1.00;;;8.80;99.90;;;;;;4825576;29;20224;-80
2023/11/09 03:46:39;;;;;;;4.90;1.17;;;8.80;99.90;;;;;;4825566;29;20198;-79
2023/11/09 03:49:07;;;;;;;1.13;0.80;;;8.80;99.90;;;;;;4809021;29;20529;-80
2023/11/09 03:51:35;;;;;;;3.63;0.93;;;8.80;99.90;;;;;;4808847;29;20193;-81
2023/11/09 03:54:07;;;;;;;2.37;1.13;;;8.80;99.90;;;;;;4824896;29;20512;-90
2023/11/09 03:56:32;;;;;;;2.87;1.00;;;8.80;99.90;;;;;;4825524;29;20185;-80
2023/11/09 03:58:59;;;;;;;3.35;0.90;;;8.80;99.90;;;;;;4825140;29;20257;-79
2023/11/09 04:01:25;;;;;;;1.75;1.00;;;8.80;99.90;;;;;;4825482;29;20205;-83
2023/11/09 04:03:55;;;;;;;1.90;1.00;;;8.80;99.90;;;;;;4825189;29;20210;-89
2023/11/09 04:06:21;;;;;;;1.48;0.70;;;8.80;99.90;;;;;;4825223;29;20295;-89
2023/11/09 04:08:47;;;;;;;1.58;0.90;;;8.80;99.90;;;;;;4824571;29;20268;-89
2023/11/09 04:11:13;;;;;;;2.67;0.90;;;8.90;99.90;;;;;;4825215;29;20680;-78
2023/11/09 04:13:39;;;;;;;1.23;0.80;;;8.90;99.90;;;;;;4830239;29;20517;-78
2023/11/09 04:16:08;;;;;;;4.53;1.02;;;8.90;99.90;;;;;;4831151;29;20189;-80
2023/11/09 04:18:34;;;;;;;1.45;0.90;;;8.90;99.90;;;;;;4830917;29;20189;-78
2023/11/09 04:20:59;;;;;;;1.67;1.03;;;8.90;99.90;;;;;;4814396;29;20613;-79
2023/11/09 04:23:25;;;;;;;1.35;0.95;;;8.90;99.90;;;;;;4813840;29;20193;-78
2023/11/09 04:25:51;;;;;;;3.85;1.52;;;8.90;99.90;;;;;;4830660;29;20193;-79
2023/11/09 04:28:18;;;;;;;1.23;0.82;;;8.90;99.90;;;;;;4830886;29;20215;-78
2023/11/09 04:30:43;;;;;;;3.63;1.00;;;8.90;99.90;;;;;;4830602;29;20189;-78
2023/11/09 04:33:09;;;;;;;1.90;0.90;;;8.90;99.90;;;;;;4830635;29;20584;-79
2023/11/09 04:35:39;;;;;;;2.80;1.00;;;8.90;99.90;;;;;;4814130;29;20201;-79
2023/11/09 04:38:05;;;;;;;2.85;1.15;;;8.90;99.90;;;;;;4830669;29;20190;-79
2023/11/09 04:40:31;;;;;;;2.70;0.90;;;8.90;99.90;;;;;;4813998;29;20208;-88
2023/11/09 04:42:58;;;;;;;1.75;1.02;;;8.80;99.90;;;;;;4814088;29;20190;-79
2023/11/09 04:45:25;;;;;;;3.13;1.10;;;8.80;99.90;;;;;;4830402;29;20217;-78
2023/11/09 04:47:58;;;;;;;4.18;0.82;;;8.80;99.90;;;;;;4830149;29;20209;-78
2023/11/09 04:50:30;;;;;;;2.40;1.05;;;8.80;99.90;;;;;;4813944;29;20262;-80
2023/11/09 04:53:29;;;;;;;3.28;0.90;;;8.80;99.90;;;;;;4813822;29;20196;-85
2023/11/09 04:56:04;;;;;;;2.43;0.90;;;8.80;99.90;;;;;;4829410;29;20293;-78
2023/11/09 04:58:51;;;;;;;2.47;0.80;;;8.80;99.90;;;;;;4830078;29;20181;-77
2023/11/09 05:06:50;;;;;;;2.07;1.00;;;8.80;99.90;;;;;;4830041;29;20273;-77
2023/11/09 05:09:18;;;;;;;1.60;0.95;;;8.80;99.90;;;;;;4829887;29;20614;-77
2023/11/09 05:11:45;;;;;;;1.35;0.90;;;8.80;99.90;;;;;;4829941;29;20230;-79
2023/11/09 05:14:11;;;;;;;2.33;0.93;;;8.80;99.90;;;;;;4814268;29;20193;-82
2023/11/09 05:16:38;;;;;;;2.78;1.05;;;8.80;99.90;;;;;;4830919;29;20205;-81
2023/11/09 05:19:03;;;;;;;3.15;1.10;;;8.80;99.90;;;;;;4814540;29;20197;-90
2023/11/09 05:21:29;;;;;;;3.97;1.23;;;8.80;99.90;;;;;;4830378;29;20200;-88
2023/11/09 05:23:55;;;;;;;3.63;1.23;;;8.80;99.90;;;;;;4828265;29;20217;-78
2023/11/09 05:26:22;;;;;;;2.40;1.10;;;8.80;99.90;;;;;;4827361;29;20197;-78
2023/11/09 05:28:48;;;;;;;5.38;1.27;;;8.80;99.90;;;;;;4827234;29;20208;-78
2023/11/09 05:31:14;;;;;;;3.80;1.20;;;8.80;99.90;;;;;;4827620;29;20619;-78
2023/11/09 05:33:40;;;;;;;2.88;1.25;;;8.80;99.90;;;;;;4827099;29;20269;-77
2023/11/09 05:36:09;;;;;;;6.18;1.10;;;8.70;99.90;;;;;;4827040;29;20630;-78
2023/11/09 05:38:35;;;;;;;3.28;1.20;;;8.80;99.90;;;;;;4826935;29;20625;-78
2023/11/09 05:41:01;;;;;;;4.43;1.52;;;8.80;99.90;;;;;;4826679;29;20266;-78
2023/11/09 05:43:27;;;;;;;3.83;1.40;;;8.80;99.90;;;;;;4826928;29;20276;-78
2023/11/09 05:45:53;;;;;;;3.75;1.05;;;8.80;99.90;;;;;;4826780;29;20208;-79
2023/11/09 05:48:19;;;;;;;1.90;1.08;;;8.80;99.90;;;;;;4826757;29;20186;-77
2023/11/09 05:50:45;;;;;;;3.57;1.30;;;8.80;99.90;;;;;;4826471;29;20713;-77
2023/11/09 05:53:10;;;;;;;2.55;1.00;;;8.80;99.90;;;;;;4826720;29;20190;-78
2023/11/09 05:55:36;;;;;;;3.20;1.40;;;8.90;99.90;;;;;;4826693;29;20532;-79
2023/11/09 05:58:03;;;;;;;3.47;1.40;;;8.80;99.90;;;;;;4810000;29;20225;-79
2023/11/09 06:00:30;;;;;;;2.58;1.08;;;8.90;99.90;;;;;;4826572;29;20189;-78
2023/11/09 06:02:58;;;;;;;4.70;1.33;;;8.90;99.90;;;;;;4809998;29;20647;-88
2023/11/09 06:05:24;;;;;;;5.90;1.38;;;8.80;99.90;;;;;;4809940;29;20325;-78
2023/11/09 06:07:52;;;;;;;3.13;1.33;;;8.80;99.90;;;;;;4810344;29;20194;-78
2023/11/09 06:10:19;;;;;;;1.73;1.10;;;8.90;99.90;;;;;;4826212;29;20238;-80
2023/11/09 06:12:44;;;;;;;3.45;1.35;;;8.80;99.90;;;;;;4826398;29;20235;-78
2023/11/09 06:15:12;;;;;;;2.63;1.20;;;8.80;99.90;;;;;;4810355;29;20293;-77
2023/11/09 06:17:37;;;;;;;2.47;1.25;;;8.80;99.90;;;;;;4810117;29;20190;-79
2023/11/09 06:20:06;;;;;;;5.55;1.17;;;8.80;99.90;;;;;;4826701;29;20689;-79
2023/11/09 06:22:32;;;;;;;3.15;1.30;;;8.90;99.90;;;;;;4826165;29;20493;-78
2023/11/09 06:24:58;;;;;;;2.28;1.02;;;8.90;99.90;;;;;;4826003;29;20228;-79
2023/11/09 06:27:23;;;;;;;6.03;1.50;;;8.90;99.90;;;;;;4826541;29;20206;-79
2023/11/09 06:29:49;;;;;;;3.75;1.20;;;8.90;99.90;;;;;;4826735;29;20243;-79
2023/11/09 06:32:15;;;;;;;1.70;1.13;;;8.90;99.90;;;;;;4826540;29;20201;-78
2023/11/09 06:34:48;;;;;;;2.33;1.33;;;8.90;99.90;;;;;;4826128;29;20186;-89
2023/11/09 06:37:13;;;;;;;2.97;1.02;;;8.90;99.90;;;;;;4826141;29;20194;-90
2023/11/09 06:39:46;;;;;;;2.00;1.13;;;8.90;99.90;;;;;;4826267;29;20695;-82
2023/11/09 06:42:12;;;;;;;2.90;1.20;;;9.00;99.90;;;;;;4810119;29;20231;-89
2023/11/09 06:44:40;;;;;;;1.95;1.13;;;8.90;99.90;;;;;;4826092;29;20242;-91
2023/11/09 06:47:05;;;;;;;2.55;1.02;;;9.00;99.90;;;;;;4826201;29;20194;-78
2023/11/09 06:49:32;;;;;;;2.95;1.10;;;9.00;99.90;;;;;;4825855;29;20594;-79
2023/11/09 06:51:58;;;;;;;5.53;1.20;;;9.00;99.90;;;;;;4825731;29;20578;-81
2023/11/09 06:54:24;;;;;;;2.55;1.15;;;9.00;99.90;;;;;;4826131;29;20182;-77
2023/11/09 06:56:50;;;;;;;2.33;1.10;;;9.10;99.90;;;;;;4826114;29;20250;-78
2023/11/09 06:59:15;;;;;;;4.63;1.23;;;9.10;99.90;;;;;;4825883;29;20190;-78
2023/11/09 07:01:42;;;;;;;3.45;1.35;;;9.00;99.90;;;;;;4826030;29;20265;-77
2023/11/09 07:04:07;;;;;;;2.47;1.15;;;9.10;99.90;;;;;;4826215;29;20665;-79
2023/11/09 07:06:33;;;;;;;2.20;1.13;;;9.10;99.90;;;;;;4825996;29;20198;-79
2023/11/09 07:08:59;;;;;;;2.03;1.02;;;9.10;99.90;;;;;;4826037;29;20208;-80
2023/11/09 07:11:24;;;;;;;2.65;1.10;;;9.10;99.90;;;;;;4825617;29;20591;-82
2023/11/09 07:13:50;;;;;;;2.55;1.00;;;9.20;99.90;;;;;;4809559;29;20198;-90
2023/11/09 07:16:18;;;;;;;2.53;1.23;;;9.10;99.90;;;;;;4809731;29;20602;-88
2023/11/09 07:18:45;;;;;;;2.20;1.20;;;9.10;99.90;;;;;;4809270;29;20278;-90
2023/11/09 07:21:12;;;;;;;1.92;1.15;;;9.10;99.90;;;;;;4825966;29;20189;-89
2023/11/09 07:23:37;;;;;;;3.80;1.23;;;9.20;99.90;;;;;;4809322;29;20198;-89
2023/11/09 07:26:04;;;;;;;2.75;1.60;;;9.20;99.90;;;;;;4808915;29;20548;-88
2023/11/09 07:28:31;;;;;;;3.97;1.17;;;9.20;99.90;;;;;;4825113;29;20201;-81
2023/11/09 07:30:59;;;;;;;4.47;1.40;;;9.30;99.90;;;;;;4825467;29;20205;-80
2023/11/09 07:33:24;;;;;;;3.00;1.10;;;9.40;99.90;;;;;;4824912;29;20197;-79
2023/11/09 07:35:51;;;;;;;3.28;1.42;;;9.40;99.90;;;;;;4809116;29;20641;-81
2023/11/09 07:38:18;;;;;;;6.85;1.73;;;9.40;99.90;;;;;;4825452;29;20523;-78
2023/11/09 07:40:46;;;;;;;3.42;1.30;;;9.40;99.90;;;;;;4824784;29;20217;-84
2023/11/09 07:43:12;;;;;;;1.55;0.90;;;9.40;99.90;;;;;;4825475;29;20198;-83
2023/11/09 07:45:38;;;;;;;2.03;1.17;;;9.40;99.90;;;;;;4809525;29;20282;-86
2023/11/09 07:48:04;;;;;;;2.47;1.20;;;9.40;99.90;;;;;;4808449;29;20228;-87
2023/11/09 07:50:31;;;;;;;2.53;1.20;;;9.40;99.90;;;;;;4825942;29;20198;-91
2023/11/09 07:52:57;;;;;;;4.32;1.45;;;9.50;99.90;;;;;;4826382;29;20186;-90
2023/11/09 07:55:23;;;;;;;1.98;1.30;;;9.50;99.90;;;;;;4826540;29;20190;-91
2023/11/09 07:57:49;;;;;;;4.97;1.20;;;9.50;99.90;;;;;;4826794;29;20190;-91
2023/11/09 08:00:16;;;;;;;4.00;1.20;;;9.60;99.90;;;;;;4827145;29;20190;-91
2023/11/09 08:02:42;;;;;;;3.35;1.40;;;9.60;99.90;;;;;;4825730;29;20189;-90
2023/11/09 08:05:14;;;;;;;4.72;1.20;;;9.60;99.90;;;;;;4825470;29;20225;-90
2023/11/09 08:07:44;;;;;;;2.15;1.60;;;9.60;99.90;;;;;;4809137;29;20221;-85
2023/11/09 08:10:09;;;;;;;7.35;1.80;;;9.70;99.90;;;;;;4805569;29;20234;-90
2023/11/09 08:12:36;;;;;;;4.20;1.70;;;9.70;99.90;;;;;;4805834;29;20677;-79
2023/11/09 08:15:10;;;;;;;3.10;1.67;;;9.70;99.90;;;;;;4806545;29;20190;-82
2023/11/09 08:17:42;;;;;;;4.05;1.95;;;9.70;99.90;;;;;;4805953;29;20685;-80
2023/11/09 08:20:13;;;;;;;3.72;1.90;;;9.70;99.90;;;;;;4806717;29;20178;-80
2023/11/09 08:22:44;;;;;;;5.05;1.65;;;9.70;99.90;;;;;;4805736;29;20202;-79
2023/11/09 08:25:15;;;;;;;2.40;1.38;;;9.70;99.90;;;;;;4806181;29;20252;-79
2023/11/09 08:27:42;;;;;;;2.60;1.50;;;9.70;99.90;;;;;;4803941;29;20640;-78
2023/11/09 08:30:12;;;;;;;5.85;2.22;;;9.70;99.90;;;;;;4805956;29;20199;-81
2023/11/09 08:32:39;;;;;;;5.05;1.60;;;9.70;99.90;;;;;;4805772;29;20223;-78
2023/11/09 08:35:10;;;;;;;2.97;1.55;;;9.70;99.90;;;;;;4806438;29;20191;-79
2023/11/09 08:37:42;;;;;;;5.45;1.42;;;9.70;99.90;;;;;;4806896;29;20190;-79
2023/11/09 08:40:16;;;;;;;3.05;1.60;;;9.70;99.90;;;;;;4806822;29;20197;-81
2023/11/09 08:42:53;;;;;;;11.38;1.80;;;9.70;99.90;;;;;;4807260;29;20186;-81
2023/11/09 08:45:21;;;;;;;4.30;1.50;;;9.70;99.90;;;;;;4806867;29;20222;-78
2023/11/09 08:47:49;;;;;;;4.80;1.25;;;9.70;99.90;;;;;;4806779;29;20191;-79
2023/11/09 08:50:16;;;;;;;2.13;1.20;;;9.80;99.90;;;;;;4806791;29;20195;-79
2023/11/09 08:52:45;;;;;;;2.65;1.20;;;9.70;99.90;;;;;;4806929;29;20198;-89
2023/11/09 08:55:12;;;;;;;3.38;1.58;;;9.80;99.90;;;;;;4806516;29;20239;-88
2023/11/09 08:57:41;;;;;;;2.35;1.00;;;9.80;99.90;;;;;;4806637;29;20191;-91
2023/11/09 09:00:16;;;;;;;2.35;1.15;;;9.80;99.90;;;;;;4802303;29;20273;-86
2023/11/09 09:02:51;;;;;;;4.25;1.20;;;9.80;99.90;;;;;;4810524;29;20190;-88
2023/11/09 09:05:20;;;;;;;1.33;0.85;;;9.80;99.90;;;;;;4808858;29;20233;-94
2023/11/09 09:07:49;;;;;;;3.55;1.10;;;9.90;99.90;;;;;;4808660;29;20209;-93
2023/11/09 09:10:16;;;;;;;2.10;0.90;;;9.90;99.90;;;;;;4808308;29;20246;-79
2023/11/09 09:12:46;;;;;;;1.45;1.00;;;9.90;99.90;;;;;;4809048;29;20687;-90
2023/11/09 09:15:15;;;;;;;1.30;0.90;;;9.90;99.90;;;;;;4809707;29;20198;-93
2023/11/09 09:17:50;;;;;;;2.08;1.10;;;9.90;99.90;;;;;;4809861;29;20186;-91
2023/11/09 09:20:20;;;;;;;2.08;0.90;;;10.00;99.90;;;;;;4808599;29;20418;-93
2023/11/09 09:22:55;;;;;;;2.60;1.08;;;10.00;99.90;;;;;;4809709;29;20182;-94
2023/11/09 09:25:25;;;;;;;4.10;1.13;;;9.90;99.90;;;;;;4809342;29;20715;-95
2023/11/09 09:28:01;;;;;;;1.95;1.02;;;9.90;99.90;;;;;;4808032;29;20277;-93
2023/11/09 09:30:29;;;;;;;2.80;1.05;;;10.00;99.90;;;;;;4809636;29;20540;-94
2023/11/09 09:32:59;;;;;;;2.45;1.08;;;10.00;99.90;;;;;;4809375;29;20224;-82
2023/11/09 09:35:27;;;;;;;4.45;1.00;;;10.00;99.90;;;;;;4809583;29;20635;-82
2023/11/09 09:37:53;;;;;;;2.67;1.00;;;10.10;99.90;;;;;;4809103;29;20232;-80
2023/11/09 09:40:22;;;;;;;1.20;0.80;;;10.10;99.90;;;;;;4809048;29;20194;-81
2023/11/09 09:42:56;;;;;;;2.15;0.93;;;10.10;99.90;;;;;;4809190;29;20278;-80
2023/11/09 09:45:26;;;;;;;1.75;1.35;;;10.10;99.90;;;;;;4809184;29;20214;-80
2023/11/09 09:47:54;;;;;;;1.38;0.85;;;10.00;99.90;;;;;;4809176;29;20244;-81
2023/11/09 09:50:24;;;;;;;4.07;1.05;;;10.00;99.90;;;;;;4808938;29;20186;-79
2023/11/09 09:52:56;;;;;;;2.17;1.00;;;9.90;99.90;;;;;;4808638;29;20190;-78
2023/11/09 09:55:27;;;;;;;4.45;0.90;;;9.90;99.90;;;;;;4808614;29;20211;-78
2023/11/09 09:57:54;;;;;;;1.77;0.73;;;9.80;99.90;;;;;;4809008;29;20248;-78
2023/11/09 10:00:27;;;;;;;2.80;0.88;;;9.80;99.90;;;;;;4808541;29;20186;-77
2023/11/09 10:02:57;;;;;;;2.63;1.10;;;9.70;99.90;;;;;;4808996;29;20194;-81
2023/11/09 10:05:25;;;;;;;5.28;0.90;;;9.70;99.90;;;;;;4807881;29;20670;-78
2023/11/09 10:08:12;;;;;;;1.85;1.00;;;9.60;99.90;;;;;;4808595;29;20566;-79
2023/11/09 10:10:44;;;;;;;4.45;1.10;;;9.60;99.90;;;;;;4806239;29;20242;-79
2023/11/09 10:13:13;;;;;;;2.22;0.98;;;9.50;99.90;;;;;;4807265;29;20198;-80
2023/11/09 10:15:40;;;;;;;3.55;1.05;;;9.50;99.90;;;;;;4808540;29;20206;-78
2023/11/09 10:18:08;;;;;;;2.05;1.10;;;9.50;99.90;;;;;;4808575;29;20290;-79
2023/11/09 10:20:35;;;;;;;5.25;1.30;;;9.50;99.90;;;;;;4807415;29;20202;-79
2023/11/09 10:23:03;;;;;;;1.77;0.90;;;9.40;99.90;;;;;;4808662;29;20203;-79
2023/11/09 10:25:31;;;;;;;2.58;1.02;;;9.40;99.90;;;;;;4808194;29;20268;-80
2023/11/09 10:28:01;;;;;;;2.00;1.00;;;9.40;99.90;;;;;;4808360;29;20251;-78
2023/11/09 10:30:37;;;;;;;1.90;0.93;;;9.40;99.90;;;;;;4807170;29;20205;-89
2023/11/09 10:33:07;;;;;;;1.70;1.10;;;9.40;99.90;;;;;;4808158;29;20246;-84
2023/11/09 10:35:42;;;;;;;1.23;0.93;;;9.40;99.90;;;;;;4807113;29;20583;-92
2023/11/09 10:38:12;;;;;;;2.38;1.05;;;9.40;99.90;;;;;;4800775;29;20272;-88
2023/11/09 10:40:42;;;;;;;2.15;1.00;;;9.40;99.90;;;;;;4808035;29;20246;-92
2023/11/09 10:43:09;;;;;;;2.45;1.40;;;9.40;99.90;;;;;;4807838;29;20202;-90
2023/11/09 10:45:38;;;;;;;1.75;1.05;;;9.40;99.90;;;;;;4808131;29;20308;-78
2023/11/09 10:48:11;;;;;;;2.72;1.30;;;9.40;99.90;;;;;;4807831;29;20270;-77
2023/11/09 10:50:46;;;;;;;2.55;1.00;;;9.40;99.90;;;;;;4807717;29;20230;-79
2023/11/09 10:53:18;;;;;;;1.17;0.77;;;9.40;99.90;;;;;;4801354;29;20619;-78
2023/11/09 10:55:53;;;;;;;1.73;0.80;;;9.40;99.90;;;;;;4807533;29;20195;-76
2023/11/09 10:58:23;;;;;;;1.50;1.17;;;9.30;99.90;;;;;;4807722;29;20587;-79
2023/11/09 11:00:58;;;;;;;1.20;1.00;;;9.40;99.90;;;;;;4807672;29;20293;-77
2023/11/09 11:03:37;;;;;;;2.75;1.02;;;9.40;99.90;;;;;;4806051;29;20521;-78
2023/11/09 11:06:08;;;;;;;3.60;0.90;;;9.40;99.90;;;;;;4806195;29;20233;-78
2023/11/09 11:08:38;;;;;;;1.17;0.90;;;9.40;99.90;;;;;;4807286;29;20197;-78
2023/11/09 11:11:05;;;;;;;2.25;1.20;;;9.40;99.90;;;;;;4818509;29;20278;-78
2023/11/09 11:13:35;;;;;;;1.45;0.90;;;9.40;99.90;;;;;;4823535;29;20193;-79
2023/11/09 11:16:16;;;;;;;0.98;0.85;;;9.40;99.90;;;;;;4808780;29;20233;-78
2023/11/09 11:18:56;;;;;;;1.58;0.80;;;9.50;99.90;;;;;;4809200;29;20253;-78
2023/11/09 11:21:59;;;;;;;1.13;0.82;;;9.50;99.90;;;;;;4825327;29;20221;-77
2023/11/09 11:24:55;;;;;;;2.20;1.00;;;9.50;99.90;;;;;;4825349;29;20270;-78
2023/11/09 11:27:48;;;;;;;1.35;1.00;;;9.50;99.90;;;;;;4824936;29;20221;-77
2023/11/09 11:30:33;;;;;;;3.35;1.10;;;9.60;99.90;;;;;;4824721;29;20190;-78
2023/11/09 11:33:06;;;;;;;2.85;1.02;;;9.50;99.90;;;;;;4825416;29;20326;-77
2023/11/09 11:35:43;;;;;;;1.48;0.80;;;9.60;99.90;;;;;;4825416;29;20189;-78
2023/11/09 11:38:28;;;;;;;3.75;0.80;;;9.60;99.90;;;;;;4825092;29;20170;-78
2023/11/09 11:41:12;;;;;;;2.83;1.00;;;9.60;99.90;;;;;;4824701;29;20198;-78
2023/11/09 11:43:42;;;;;;;1.50;0.70;;;9.60;99.90;;;;;;4824795;29;20186;-78
2023/11/09 11:46:13;;;;;;;2.60;0.95;;;9.70;99.90;;;;;;4808905;29;20194;-79
2023/11/09 11:48:48;;;;;;;2.17;1.17;;;9.70;99.90;;;;;;4808761;29;20186;-78
2023/11/09 11:51:15;;;;;;;1.75;0.93;;;9.70;99.90;;;;;;4825188;29;20264;-80
2023/11/09 11:53:43;;;;;;;1.30;0.80;;;9.80;99.90;;;;;;4824541;29;20185;-79
2023/11/09 11:56:14;;;;;;;4.50;1.10;;;9.80;99.90;;;;;;4808445;29;20693;-79
2023/11/09 11:59:00;;;;;;;1.35;0.90;;;9.80;99.90;;;;;;4808284;29;20245;-78
2023/11/09 12:01:33;;;;;;;1.98;0.85;;;9.80;99.90;;;;;;4825054;29;20641;-81
2023/11/09 12:04:00;;;;;;;2.13;0.70;;;9.80;99.90;;;;;;4824866;29;20181;-79
2023/11/09 12:06:27;;;;;;;0.98;0.73;;;9.80;99.90;;;;;;4824985;29;20200;-80
2023/11/09 12:09:01;;;;;;;1.25;0.80;;;9.90;99.90;;;;;;4808480;29;20579;-85
2023/11/09 12:11:33;;;;;;;0.90;0.75;;;9.90;99.90;;;;;;4824449;29;20287;-89
2023/11/09 12:14:08;;;;;;;3.45;1.05;;;9.90;99.90;;;;;;4824677;29;20242;-92
2023/11/09 12:16:34;;;;;;;1.13;0.88;;;9.90;99.90;;;;;;4808391;29;20224;-84
2023/11/09 12:19:06;;;;;;;1.73;0.77;;;9.90;99.90;;;;;;4824856;29;20193;-82
2023/11/09 12:21:37;;;;;;;2.28;1.00;;;9.90;99.90;;;;;;4825050;29;20189;-78
2023/11/09 12:24:03;;;;;;;2.28;0.80;;;9.90;99.90;;;;;;4824904;29;20646;-81
2023/11/09 12:26:33;;;;;;;1.30;0.90;;;9.90;99.90;;;;;;4824576;29;20197;-78
2023/11/09 12:29:00;;;;;;;1.65;0.90;;;9.90;99.90;;;;;;4824034;29;20269;-78
2023/11/09 12:31:29;;;;;;;1.02;0.70;;;9.90;99.90;;;;;;4824509;29;20246;-81
2023/11/09 12:34:06;;;;;;;1.58;0.77;;;10.00;99.90;;;;;;4826131;29;20641;-78
2023/11/09 12:36:35;;;;;;;0.80;0.80;;;10.00;99.90;;;;;;4828283;29;20190;-79
2023/11/09 12:39:05;;;;;;;1.63;0.88;;;10.00;99.90;;;;;;4811646;29;20205;-81
2023/11/09 12:41:32;;;;;;;4.18;1.15;;;10.00;99.90;;;;;;4827785;29;20201;-78
2023/11/09 12:43:59;;;;;;;4.95;1.08;;;9.90;99.90;;;;;;4827946;29;20189;-77
2023/11/09 12:46:25;;;;;;;1.83;0.98;;;9.90;99.90;;;;;;4828046;29;20198;-77
2023/11/09 12:48:56;;;;;;;1.45;0.80;;;9.90;99.90;;;;;;4827738;29;20516;-81
2023/11/09 12:51:26;;;;;;;1.83;0.90;;;9.90;99.90;;;;;;4827809;29;20284;-79
2023/11/09 12:53:55;;;;;;;1.05;0.80;;;9.90;99.90;;;;;;4827813;29;20338;-78
2023/11/09 12:56:22;;;;;;;2.28;0.70;;;9.90;99.90;;;;;;4827858;29;20204;-77
2023/11/09 12:58:49;;;;;;;3.80;0.82;;;9.90;99.90;;;;;;4811199;29;20197;-80
2023/11/09 13:01:15;;;;;;;2.03;0.73;;;9.90;99.90;;;;;;4828178;29;20221;-79
2023/11/09 13:03:44;;;;;;;2.80;0.70;;;9.90;99.90;;;;;;4811524;29;20226;-92
2023/11/09 13:06:13;;;;;;;2.05;0.85;;;9.90;99.90;;;;;;4827850;29;20210;-91
2023/11/09 13:08:41;;;;;;;2.05;0.90;;;9.90;99.90;;;;;;4811752;29;20186;-79
2023/11/09 13:11:13;;;;;;;2.20;0.80;;;9.90;99.90;;;;;;4819887;29;20244;-94